Time;durP1;ratioP1;P1;durP2;ratioP2;P2;SDS_P1;SDS_P2;PMS_P1;PMS_P2;Temp;Humidity;BMP_temperature;BMP_pressure;BME280_temperature;BME280_humidity;BME280_pressure;Samples;Min_cycle;Max_cycle;Signal;HPM_P1;HPM_P2
2024/02/23 00:00:52;;;;;;;0.20;0.20;;;9.10;74.70;;;4.66;100.00;93854.69;5009583;28;20095;-55
2024/02/23 00:03:17;;;;;;;0.85;0.30;;;9.10;74.60;;;4.63;100.00;93856.78;5006052;28;20020;-54
2024/02/23 00:05:43;;;;;;;1.98;0.43;;;9.10;74.60;;;4.62;100.00;93852.56;5009735;28;20025;-55
2024/02/23 00:08:09;;;;;;;0.30;0.30;;;9.10;74.40;;;4.59;100.00;93849.69;4990609;23;20054;-53
2024/02/23 00:10:35;;;;;;;0.40;0.40;;;9.10;74.40;;;4.58;100.00;93841.00;4972449;28;20034;-52
2024/02/23 00:13:01;;;;;;;0.35;0.30;;;9.10;74.30;;;4.61;100.00;93845.72;4969385;28;20030;-52
2024/02/23 00:15:27;;;;;;;0.85;0.35;;;9.10;74.20;;;4.63;100.00;93843.59;4971239;28;20034;-51
2024/02/23 00:17:53;;;;;;;1.00;0.30;;;9.10;74.10;;;4.61;100.00;93844.94;4970145;28;20036;-50
2024/02/23 00:20:19;;;;;;;0.45;0.20;;;9.20;74.10;;;4.54;100.00;93850.47;4969566;28;20075;-54
2024/02/23 00:22:45;;;;;;;0.40;0.35;;;9.10;74.70;;;4.55;100.00;93856.56;4970012;28;20448;-54
2024/02/23 00:25:11;;;;;;;2.63;0.30;;;9.10;73.80;;;4.59;100.00;93852.31;4966204;28;20114;-49
2024/02/23 00:27:37;;;;;;;0.30;0.30;;;9.10;73.80;;;4.67;100.00;93841.25;4968974;28;20101;-52
2024/02/23 00:30:04;;;;;;;0.35;0.30;;;9.20;73.80;;;4.67;100.00;93843.88;4965735;28;20026;-51
2024/02/23 00:32:30;;;;;;;0.73;0.38;;;9.20;73.70;;;4.65;100.00;93845.97;4967651;28;20030;-51
2024/02/23 00:34:57;;;;;;;1.38;0.50;;;9.30;73.50;;;4.68;100.00;93840.16;4970245;28;20073;-51
2024/02/23 00:37:23;;;;;;;0.43;0.30;;;9.30;73.30;;;4.76;100.00;93838.81;4968916;28;20432;-52
2024/02/23 00:39:49;;;;;;;0.73;0.38;;;9.30;73.20;;;4.76;100.00;93846.72;4970054;28;20366;-52
2024/02/23 00:42:15;;;;;;;1.95;0.40;;;9.30;73.00;;;4.73;100.00;93839.34;4968955;28;20499;-50
2024/02/23 00:44:40;;;;;;;0.57;0.40;;;9.30;72.80;;;4.76;100.00;93834.31;4969509;28;20022;-50
2024/02/23 00:47:06;;;;;;;0.40;0.30;;;9.30;72.70;;;4.77;100.00;93837.75;4967839;28;20018;-50
2024/02/23 00:49:32;;;;;;;0.68;0.30;;;9.30;72.60;;;4.74;100.00;93831.19;4968400;28;20026;-53
2024/02/23 00:51:58;;;;;;;0.82;0.35;;;9.30;72.50;;;4.71;100.00;93847.53;4970272;28;20041;-54
2024/02/23 00:54:24;;;;;;;0.73;0.40;;;9.30;72.60;;;4.68;100.00;93842.03;4970522;28;20053;-52
2024/02/23 00:56:52;;;;;;;1.13;0.30;;;9.30;72.50;;;4.72;100.00;93853.59;4969908;28;20026;-55
2024/02/23 00:59:18;;;;;;;1.55;0.30;;;9.30;72.40;;;4.71;100.00;93858.09;4967484;28;20129;-51
2024/02/23 01:01:43;;;;;;;0.30;0.30;;;9.30;72.40;;;4.70;100.00;93866.25;4968756;28;20113;-50
2024/02/23 01:04:09;;;;;;;0.82;0.30;;;9.40;72.40;;;4.76;100.00;93863.34;4970498;28;20552;-50
2024/02/23 01:06:35;;;;;;;1.10;0.40;;;9.40;72.40;;;4.76;100.00;93860.69;4968274;28;20049;-50
2024/02/23 01:09:01;;;;;;;0.20;0.20;;;9.40;73.10;;;4.79;100.00;93868.06;4969072;28;20061;-50
2024/02/23 01:11:27;;;;;;;0.30;0.30;;;9.40;72.30;;;4.80;100.00;93867.03;4968798;28;20026;-54
2024/02/23 01:13:53;;;;;;;1.15;0.30;;;9.40;72.20;;;4.82;100.00;93879.94;4968665;28;20027;-54
2024/02/23 01:16:18;;;;;;;0.50;0.35;;;9.40;72.20;;;4.80;100.00;93872.31;4968831;28;20078;-52
2024/02/23 01:18:44;;;;;;;0.40;0.30;;;9.40;72.10;;;4.82;100.00;93886.00;4966602;28;20026;-52
2024/02/23 01:21:10;;;;;;;0.20;0.20;;;9.50;72.10;;;4.82;100.00;93895.75;4967409;28;20029;-51
2024/02/23 01:23:36;;;;;;;1.33;0.30;;;9.50;72.00;;;4.81;100.00;93923.22;4970192;28;20026;-55
2024/02/23 01:26:02;;;;;;;0.30;0.30;;;9.50;72.00;;;4.32;100.00;93910.66;4967014;28;20385;-55
2024/02/23 01:28:28;;;;;;;0.20;0.20;;;9.40;71.50;;;3.84;100.00;93921.47;4970329;28;20030;-54
2024/02/23 01:30:54;;;;;;;0.30;0.30;;;9.30;70.60;;;3.55;100.00;93936.19;4966987;28;20504;-51
2024/02/23 01:33:20;;;;;;;0.20;0.20;;;9.10;70.00;;;3.43;100.00;93946.94;4967847;28;20202;-54
2024/02/23 01:35:45;;;;;;;1.75;0.30;;;8.90;69.90;;;3.29;100.00;93957.19;4969479;28;20030;-52
2024/02/23 01:38:11;;;;;;;0.43;0.20;;;8.70;70.00;;;3.14;100.00;93946.59;4969958;28;20481;-51
2024/02/23 01:40:37;;;;;;;0.20;0.20;;;8.60;70.10;;;2.97;100.00;93937.03;4968706;28;20397;-52
2024/02/23 01:43:05;;;;;;;0.63;0.40;;;8.40;70.20;;;2.71;100.00;93930.09;4969973;28;20022;-50
2024/02/23 01:45:32;;;;;;;1.48;0.55;;;8.20;70.20;;;2.54;100.00;93925.81;4958120;28;20038;-51
2024/02/23 01:48:00;;;;;;;0.57;0.30;;;8.00;70.30;;;2.47;100.00;93922.59;4954221;28;20400;-54
2024/02/23 01:50:27;;;;;;;1.63;0.55;;;7.90;70.50;;;2.34;100.00;93936.19;4957205;28;20517;-50
2024/02/23 01:52:54;;;;;;;1.33;0.50;;;7.70;70.70;;;2.38;100.00;93937.25;4955837;28;20481;-50
2024/02/23 01:55:23;;;;;;;4.15;0.50;;;7.60;70.90;;;2.34;100.00;93930.94;4958152;28;20089;-51
2024/02/23 01:57:49;;;;;;;1.00;0.40;;;7.50;71.10;;;2.35;100.00;93929.91;4934746;28;20037;-51
2024/02/23 02:00:18;;;;;;;2.13;0.40;;;7.40;71.40;;;2.33;100.00;93934.59;4958411;28;20026;-52
2024/02/23 02:02:45;;;;;;;1.52;0.43;;;7.40;71.60;;;2.35;100.00;93922.00;4942950;28;20113;-53
2024/02/23 02:05:11;;;;;;;2.78;0.30;;;7.30;71.80;;;2.32;100.00;93925.16;4959083;28;20037;-53
2024/02/23 02:07:41;;;;;;;4.43;0.38;;;7.30;72.00;;;2.36;100.00;93915.72;4956649;28;20049;-52
2024/02/23 02:10:10;;;;;;;4.88;0.52;;;7.20;72.30;;;2.38;100.00;93915.44;4958922;28;20477;-52
2024/02/23 02:12:36;;;;;;;2.22;0.40;;;7.20;72.40;;;2.37;100.00;93901.50;4959940;28;20504;-50
2024/02/23 02:15:03;;;;;;;2.13;0.32;;;7.20;72.60;;;2.36;100.00;93899.94;4956231;28;20034;-53
2024/02/23 02:17:30;;;;;;;2.05;0.50;;;7.20;72.70;;;2.38;100.00;93899.66;4946537;28;20026;-53
2024/02/23 02:20:01;;;;;;;1.58;0.45;;;7.20;72.80;;;2.41;100.00;93883.41;4960770;28;20034;-50
2024/02/23 02:22:27;;;;;;;1.98;0.38;;;7.20;73.00;;;2.45;100.00;93874.75;4961993;28;20543;-54
2024/02/23 02:24:53;;;;;;;2.38;0.60;;;7.20;73.10;;;2.49;100.00;93875.03;4961618;28;20026;-50
2024/02/23 02:27:19;;;;;;;1.95;0.43;;;7.20;73.20;;;2.53;100.00;93870.84;4964424;28;20085;-54
2024/02/23 02:29:44;;;;;;;2.15;0.75;;;7.20;73.30;;;2.55;100.00;93863.50;4960780;28;20040;-54
2024/02/23 02:32:10;;;;;;;1.40;0.55;;;7.20;73.30;;;2.55;100.00;93848.53;4960516;28;20022;-52
2024/02/23 02:34:36;;;;;;;1.95;0.45;;;7.20;73.40;;;2.59;100.00;93830.38;4962317;28;20022;-52
2024/02/23 02:37:02;;;;;;;1.42;0.38;;;7.20;73.40;;;2.64;100.00;93817.28;4958801;28;20274;-50
2024/02/23 02:39:28;;;;;;;2.28;0.30;;;7.30;74.20;;;2.66;100.00;93820.41;4964346;28;20040;-51
2024/02/23 02:41:54;;;;;;;0.90;0.30;;;7.30;73.50;;;2.70;100.00;93825.97;4960973;28;20407;-50
2024/02/23 02:44:20;;;;;;;0.85;0.30;;;7.30;73.40;;;2.68;100.00;93826.22;4959506;28;20085;-51
2024/02/23 02:46:46;;;;;;;0.68;0.30;;;7.30;73.40;;;2.69;100.00;93827.78;4959119;28;20026;-53
2024/02/23 02:49:12;;;;;;;2.38;0.40;;;7.40;73.50;;;2.71;100.00;93823.06;4960463;28;20033;-55
2024/02/23 02:51:38;;;;;;;3.60;0.40;;;7.40;73.50;;;2.74;100.00;93827.03;4960220;28;20026;-54
2024/02/23 02:54:04;;;;;;;1.25;0.40;;;7.40;73.50;;;2.79;100.00;93834.94;4964169;28;20489;-55
2024/02/23 02:56:30;;;;;;;0.80;0.40;;;7.50;73.50;;;2.81;100.00;93832.06;4966197;28;20022;-54
2024/02/23 02:58:56;;;;;;;1.05;0.30;;;7.50;73.60;;;2.80;100.00;93823.38;4963225;28;20021;-51
2024/02/23 03:01:22;;;;;;;1.30;0.50;;;7.50;73.60;;;2.83;100.00;93812.34;4960866;28;20021;-51
2024/02/23 03:03:48;;;;;;;0.38;0.30;;;7.60;73.80;;;2.87;100.00;93810.75;4963127;28;20048;-50
2024/02/23 03:06:13;;;;;;;5.18;0.55;;;7.60;73.70;;;2.91;100.00;93811.81;4961629;28;20026;-52
2024/02/23 03:08:42;;;;;;;0.63;0.30;;;7.60;73.60;;;2.93;100.00;93806.31;4962715;28;20133;-55
2024/02/23 03:11:08;;;;;;;2.45;0.45;;;7.60;73.70;;;2.95;100.00;93807.63;4962232;28;20469;-54
2024/02/23 03:13:34;;;;;;;2.05;0.50;;;7.70;73.70;;;2.94;100.00;93813.94;4962117;28;20038;-54
2024/02/23 03:16:00;;;;;;;0.98;0.40;;;7.70;73.80;;;2.96;100.00;93817.09;4962433;28;20533;-53
2024/02/23 03:18:27;;;;;;;0.50;0.40;;;7.70;73.70;;;2.96;100.00;93816.31;4962137;28;20029;-54
2024/02/23 03:20:55;;;;;;;0.50;0.40;;;7.70;73.70;;;2.96;100.00;93809.22;4963521;28;20034;-55
2024/02/23 03:23:21;;;;;;;1.40;0.40;;;7.70;73.70;;;2.96;100.00;93808.44;4962349;28;20018;-53
2024/02/23 03:25:46;;;;;;;3.25;0.40;;;7.70;73.70;;;3.01;100.00;93806.59;4961799;28;20014;-53
2024/02/23 03:28:12;;;;;;;1.98;0.40;;;7.70;73.80;;;3.02;100.00;93804.75;4963061;28;20052;-52
2024/02/23 03:30:38;;;;;;;2.70;0.80;;;7.70;73.60;;;3.03;100.00;93810.81;4962666;28;20033;-53
2024/02/23 03:33:04;;;;;;;0.32;0.32;;;7.80;73.60;;;3.05;100.00;93812.13;4961720;28;20030;-53
2024/02/23 03:35:30;;;;;;;0.63;0.50;;;7.80;73.70;;;3.05;100.00;93803.44;4966328;28;20444;-55
2024/02/23 03:37:56;;;;;;;2.40;0.55;;;7.80;73.70;;;3.06;100.00;93810.28;4962952;28;20022;-53
2024/02/23 03:40:22;;;;;;;1.40;0.40;;;7.80;73.70;;;3.07;100.00;93807.41;4960094;28;20403;-54
2024/02/23 03:42:48;;;;;;;0.40;0.40;;;7.80;73.60;;;3.07;100.00;93811.84;4959231;28;20542;-50
2024/02/23 03:45:13;;;;;;;0.50;0.40;;;7.80;73.60;;;3.07;100.00;93817.13;4959207;28;20030;-53
2024/02/23 03:47:40;;;;;;;0.45;0.40;;;7.80;73.60;;;3.08;100.00;93816.88;4958970;28;20490;-55
2024/02/23 03:50:07;;;;;;;2.08;0.50;;;7.80;73.50;;;3.08;100.00;93808.97;4962735;28;20044;-53
2024/02/23 03:52:33;;;;;;;2.65;0.60;;;7.80;73.50;;;3.09;100.00;93812.41;4957065;28;20476;-54
2024/02/23 03:54:59;;;;;;;0.75;0.60;;;7.80;73.50;;;3.06;100.00;93805.81;4961603;28;20129;-54
2024/02/23 03:57:24;;;;;;;1.35;0.40;;;7.80;74.30;;;3.04;100.00;93805.28;4960804;28;20128;-51
2024/02/23 03:59:55;;;;;;;2.03;0.52;;;7.80;73.50;;;3.04;100.00;93801.84;4926541;28;20026;-51
2024/02/23 04:02:21;;;;;;;0.95;0.40;;;7.80;73.50;;;3.04;100.00;93791.31;4961453;28;20049;-51
2024/02/23 04:04:48;;;;;;;1.27;0.60;;;7.80;73.60;;;3.08;100.00;93803.72;4961928;28;20444;-55
2024/02/23 04:07:15;;;;;;;0.52;0.50;;;7.80;73.50;;;3.09;100.00;93780.81;4959048;28;20148;-54
2024/02/23 04:09:41;;;;;;;0.73;0.50;;;7.80;73.50;;;3.07;100.00;93791.63;4958549;28;20085;-55
2024/02/23 04:12:09;;;;;;;0.80;0.50;;;7.80;73.50;;;3.06;100.00;93786.59;4960843;28;20450;-50
2024/02/23 04:14:36;;;;;;;1.85;0.60;;;7.80;73.50;;;3.06;100.00;93786.59;4958919;28;20026;-52
2024/02/23 04:17:03;;;;;;;1.02;0.40;;;7.80;73.50;;;3.07;100.00;93785.53;4959403;28;20070;-56
2024/02/23 04:19:29;;;;;;;1.95;0.40;;;7.90;73.50;;;3.06;100.00;93779.50;4959268;28;20120;-51
2024/02/23 04:21:55;;;;;;;2.38;0.50;;;7.90;73.50;;;3.06;100.00;93792.66;4959948;28;20026;-56
2024/02/23 04:24:21;;;;;;;2.28;0.60;;;7.90;73.50;;;3.07;100.00;93798.69;4959157;28;20039;-52
2024/02/23 04:26:46;;;;;;;0.88;0.38;;;7.90;73.50;;;3.06;100.00;93802.38;4959837;28;20019;-50
2024/02/23 04:29:12;;;;;;;1.05;0.40;;;7.90;73.40;;;3.05;100.00;93800.81;4954427;28;20489;-54
2024/02/23 04:31:38;;;;;;;1.40;0.40;;;7.90;73.40;;;2.99;100.00;93811.31;4960151;28;20022;-51
2024/02/23 04:34:04;;;;;;;1.80;0.50;;;7.90;73.30;;;3.02;100.00;93812.66;4959326;28;20396;-51
2024/02/23 04:36:30;;;;;;;1.98;0.60;;;7.90;73.20;;;2.99;100.00;93810.53;4960565;28;20092;-52
2024/02/23 04:38:56;;;;;;;0.90;0.40;;;7.90;73.10;;;2.98;100.00;93811.59;4961938;28;20069;-53
2024/02/23 04:41:22;;;;;;;5.88;2.95;;;7.80;73.00;;;2.90;100.00;93805.00;4960460;28;20022;-52
2024/02/23 04:43:48;;;;;;;3.42;0.77;;;7.80;73.00;;;2.90;100.00;93812.09;4962159;28;20134;-52
2024/02/23 04:46:14;;;;;;;3.47;0.68;;;7.80;73.00;;;2.91;100.00;93813.66;4961699;28;22268;-55
2024/02/23 04:48:40;;;;;;;3.40;0.60;;;7.80;73.00;;;2.92;100.00;93813.41;4958859;28;20046;-52
2024/02/23 04:51:08;;;;;;;3.70;2.00;;;7.80;73.10;;;2.90;100.00;93820.75;4958037;28;20026;-51
2024/02/23 04:53:38;;;;;;;5.10;1.58;;;7.80;73.10;;;2.87;100.00;93821.28;4961468;28;20077;-54
2024/02/23 04:56:05;;;;;;;2.92;0.63;;;7.80;73.20;;;2.84;100.00;93821.81;4960236;28;20034;-54
2024/02/23 04:58:31;;;;;;;2.65;0.60;;;7.80;73.20;;;2.82;100.00;93818.66;4956223;28;20050;-51
2024/02/23 05:00:56;;;;;;;1.73;0.60;;;7.80;73.20;;;2.86;100.00;93821.56;4960901;28;20117;-51
2024/02/23 05:03:23;;;;;;;1.02;0.60;;;7.80;74.00;;;2.91;100.00;93824.19;4961742;28;20026;-51
2024/02/23 05:05:53;;;;;;;1.40;0.70;;;7.80;73.30;;;2.96;100.00;93834.72;4958985;28;20405;-55
2024/02/23 05:08:20;;;;;;;1.80;0.68;;;7.80;74.10;;;2.97;100.00;93825.78;4954021;28;20047;-50
2024/02/23 05:10:47;;;;;;;1.67;0.60;;;7.80;73.30;;;2.94;100.00;93826.28;4940698;28;20023;-51
2024/02/23 05:13:13;;;;;;;1.20;0.55;;;7.80;73.20;;;2.97;100.00;93826.56;4940852;28;20046;-53
2024/02/23 05:15:39;;;;;;;0.98;0.70;;;7.80;73.30;;;2.95;100.00;93820.78;4941233;28;20425;-53
2024/02/23 05:18:06;;;;;;;2.45;0.65;;;7.80;73.30;;;2.92;100.00;93826.56;4944286;28;20034;-54
2024/02/23 05:20:32;;;;;;;1.90;0.70;;;7.80;73.20;;;2.89;100.00;93826.31;4945038;28;20043;-51
2024/02/23 05:22:57;;;;;;;1.30;0.70;;;7.80;73.20;;;2.91;100.00;93826.81;4942286;28;20027;-52
2024/02/23 05:25:25;;;;;;;2.97;0.88;;;7.80;73.20;;;2.91;100.00;93826.81;4945480;28;20073;-51
2024/02/23 05:27:51;;;;;;;4.43;0.90;;;7.80;73.20;;;2.87;100.00;93823.13;4943195;28;20054;-53
2024/02/23 05:30:17;;;;;;;0.88;0.80;;;7.80;73.30;;;2.87;100.00;93821.28;4944632;28;20562;-51
2024/02/23 05:32:43;;;;;;;1.83;0.70;;;7.80;73.30;;;2.87;100.00;93821.28;4947756;28;20030;-52
2024/02/23 05:35:10;;;;;;;1.60;0.93;;;7.80;73.30;;;2.86;100.00;93829.44;4943743;28;20030;-55
2024/02/23 05:37:39;;;;;;;1.40;1.15;;;7.70;73.30;;;2.85;100.00;93836.56;4942725;28;20022;-51
2024/02/23 05:40:09;;;;;;;2.00;0.98;;;7.70;73.40;;;2.87;100.00;93836.28;4944696;28;20042;-50
2024/02/23 05:42:37;;;;;;;1.30;1.10;;;7.70;73.40;;;2.86;100.00;93829.44;4944673;28;20441;-53
2024/02/23 05:45:08;;;;;;;1.55;0.90;;;7.70;73.50;;;2.85;100.00;93828.66;4942304;28;20168;-56
2024/02/23 05:47:36;;;;;;;3.92;1.20;;;7.70;73.50;;;2.83;100.00;93822.84;4941879;28;20039;-54
2024/02/23 05:50:04;;;;;;;1.88;1.00;;;7.70;73.50;;;2.83;100.00;93814.19;4929837;28;20054;-54
2024/02/23 05:52:33;;;;;;;2.60;0.90;;;7.70;74.00;;;2.81;100.00;93814.44;4946563;28;20174;-56
2024/02/23 05:55:00;;;;;;;1.85;1.00;;;7.70;73.50;;;2.78;100.00;93810.47;4946208;28;20497;-51
2024/02/23 05:57:28;;;;;;;1.83;1.00;;;7.60;73.50;;;2.78;100.00;93799.16;4944468;28;20037;-52
2024/02/23 05:59:55;;;;;;;1.77;0.98;;;7.60;73.50;;;2.80;100.00;93796.28;4946699;28;20035;-51
2024/02/23 06:02:22;;;;;;;1.48;1.08;;;7.60;73.60;;;2.75;100.00;93797.06;4945923;28;20093;-51
2024/02/23 06:04:49;;;;;;;4.40;0.80;;;7.60;73.50;;;2.75;100.00;93794.44;4946144;28;20027;-53
2024/02/23 06:07:20;;;;;;;1.90;0.90;;;7.60;74.40;;;2.76;100.00;93785.50;4945261;28;20027;-56
2024/02/23 06:09:46;;;;;;;1.95;0.73;;;7.60;73.50;;;2.80;100.00;93794.44;4962951;23;20681;-52
2024/02/23 06:12:12;;;;;;;1.13;0.70;;;7.60;73.60;;;2.79;100.00;93782.34;4947112;28;20031;-51
2024/02/23 06:14:37;;;;;;;1.75;0.90;;;7.70;73.60;;;2.82;100.00;93796.81;4947022;28;20038;-54
2024/02/23 06:17:03;;;;;;;1.63;0.80;;;7.60;73.50;;;2.76;100.00;93788.91;4949815;28;20104;-52
2024/02/23 06:19:29;;;;;;;5.00;0.80;;;7.60;73.50;;;2.77;100.00;93792.34;4942219;28;20030;-53
2024/02/23 06:21:55;;;;;;;2.38;0.85;;;7.60;73.50;;;2.77;100.00;93802.84;4912214;28;20038;-52
2024/02/23 06:24:21;;;;;;;3.15;0.77;;;7.60;73.50;;;2.75;100.00;93802.31;4931829;28;20378;-53
2024/02/23 06:26:49;;;;;;;1.50;0.80;;;7.60;73.40;;;2.77;100.00;93810.75;4927345;28;20027;-51
2024/02/23 06:29:15;;;;;;;2.08;0.60;;;7.60;73.40;;;2.76;100.00;93807.31;4927172;28;20037;-53
2024/02/23 06:31:41;;;;;;;1.75;0.70;;;7.60;73.30;;;2.71;100.00;93802.03;4930023;28;20031;-58
2024/02/23 06:34:08;;;;;;;1.35;0.60;;;7.50;73.20;;;2.70;100.00;93803.09;4931730;28;20030;-51
2024/02/23 06:36:34;;;;;;;2.58;0.60;;;7.50;73.10;;;2.68;100.00;93805.19;4930211;28;20481;-54
2024/02/23 06:39:00;;;;;;;2.53;0.70;;;7.60;73.20;;;2.66;100.00;93801.22;4932980;28;20411;-58
2024/02/23 06:41:26;;;;;;;1.42;0.70;;;7.60;73.10;;;2.62;100.00;93793.06;4937118;28;20097;-53
2024/02/23 06:43:52;;;;;;;5.32;0.80;;;7.50;72.90;;;2.61;100.00;93790.72;4933111;28;20110;-51
2024/02/23 06:46:20;;;;;;;3.10;0.80;;;7.50;72.80;;;2.57;100.00;93808.84;4932934;28;22172;-53
2024/02/23 06:48:46;;;;;;;1.80;0.77;;;7.50;72.70;;;2.52;100.00;93811.44;4928232;28;20067;-52
2024/02/23 06:51:12;;;;;;;2.55;0.70;;;7.50;72.70;;;2.46;100.00;93818.50;4935217;28;20213;-53
2024/02/23 06:53:38;;;;;;;3.53;0.80;;;7.50;72.60;;;2.40;100.00;93816.91;4927650;28;20027;-50
2024/02/23 06:56:04;;;;;;;2.22;0.77;;;7.40;72.50;;;2.37;100.00;93814.78;4933481;28;20031;-53
2024/02/23 06:58:30;;;;;;;5.18;1.05;;;7.40;72.40;;;2.34;100.00;93812.69;4931987;28;20030;-53
2024/02/23 07:00:56;;;;;;;1.85;0.82;;;7.40;72.40;;;2.28;100.00;93808.44;4924837;28;20493;-52
2024/02/23 07:03:22;;;;;;;1.83;0.70;;;7.30;72.40;;;2.29;100.00;93797.69;4929783;28;20062;-52
2024/02/23 07:05:49;;;;;;;2.55;0.90;;;7.40;72.50;;;2.29;100.00;93805.56;4924992;28;20030;-54
2024/02/23 07:08:15;;;;;;;2.67;0.88;;;7.40;72.50;;;2.27;100.00;93815.53;4929443;28;20530;-51
2024/02/23 07:10:42;;;;;;;5.95;1.00;;;7.40;72.50;;;2.27;100.00;93831.31;4924741;28;20027;-50
2024/02/23 07:13:08;;;;;;;2.65;0.85;;;7.40;72.60;;;2.29;100.00;93841.56;4914542;28;20380;-52
2024/02/23 07:15:36;;;;;;;2.38;1.10;;;7.40;72.60;;;2.31;100.00;93836.84;4932651;28;20031;-51
2024/02/23 07:18:02;;;;;;;4.70;0.93;;;7.40;72.70;;;2.32;100.00;93851.56;4931341;28;20054;-50
2024/02/23 07:20:28;;;;;;;2.95;0.73;;;7.40;72.70;;;2.34;100.00;93848.69;4915233;28;20023;-52
2024/02/23 07:22:54;;;;;;;2.70;0.80;;;7.40;72.70;;;2.34;100.00;93854.72;4932530;28;20135;-56
2024/02/23 07:25:20;;;;;;;1.17;0.80;;;7.50;72.70;;;2.33;100.00;93852.34;4924642;28;20127;-53
2024/02/23 07:27:48;;;;;;;2.05;0.90;;;7.50;72.70;;;2.35;100.00;93843.19;4930952;28;20030;-51
2024/02/23 07:30:18;;;;;;;4.07;0.80;;;7.50;73.50;;;2.39;100.00;93839.00;4921510;28;20038;-52
2024/02/23 07:32:46;;;;;;;3.70;0.80;;;7.50;72.70;;;2.45;100.00;93845.84;4911885;28;20051;-49
2024/02/23 07:35:12;;;;;;;2.55;0.80;;;7.60;72.70;;;2.48;100.00;93853.22;4930021;28;20043;-51
2024/02/23 07:37:38;;;;;;;5.18;0.63;;;7.60;72.70;;;2.52;100.00;93861.38;4926538;28;20113;-49
2024/02/23 07:40:05;;;;;;;5.10;0.80;;;7.70;72.80;;;2.55;100.00;93858.25;4922893;28;20034;-52
2024/02/23 07:42:35;;;;;;;6.72;1.10;;;7.70;72.70;;;2.55;100.00;93866.13;4931082;28;20023;-54
2024/02/23 07:45:07;;;;;;;9.88;1.00;;;7.70;72.80;;;2.57;100.00;93860.59;4921226;28;20044;-56
2024/02/23 07:47:33;;;;;;;3.58;0.90;;;7.80;72.80;;;2.60;100.00;93862.72;4929182;28;20023;-58
2024/02/23 07:49:59;;;;;;;3.97;0.80;;;7.80;72.70;;;2.70;100.00;93863.56;4928714;28;20593;-53
2024/02/23 07:52:25;;;;;;;4.95;0.93;;;7.90;72.70;;;2.77;100.00;93852.81;4936085;28;20030;-58
2024/02/23 07:54:55;;;;;;;4.30;0.90;;;8.00;72.50;;;2.81;100.00;93863.59;4921800;28;20546;-58
2024/02/23 07:57:21;;;;;;;2.38;0.70;;;8.00;72.30;;;2.82;100.00;93860.72;4918336;28;20023;-58
2024/02/23 07:59:48;;;;;;;1.88;0.55;;;8.10;72.20;;;2.82;100.00;93862.53;4914993;28;20408;-57
2024/02/23 08:02:15;;;;;;;5.70;0.77;;;8.20;72.00;;;2.86;100.00;93855.75;4929671;28;20033;-59
2024/02/23 08:04:42;;;;;;;4.82;1.15;;;8.20;71.70;;;2.93;100.00;93862.34;4909020;28;20030;-55
2024/02/23 08:07:08;;;;;;;2.35;0.70;;;8.30;71.40;;;2.97;100.00;93859.97;4931045;28;20262;-56
2024/02/23 08:09:34;;;;;;;6.70;0.70;;;8.40;71.20;;;3.11;100.00;93860.28;4911963;28;20098;-56
2024/02/23 08:12:00;;;;;;;2.15;0.63;;;8.50;70.90;;;3.24;100.00;93862.41;4917102;28;20023;-56
2024/02/23 08:14:26;;;;;;;1.52;0.60;;;8.60;70.90;;;3.29;100.00;93864.25;4926513;28;20031;-56
2024/02/23 08:16:52;;;;;;;1.42;0.60;;;8.70;70.70;;;3.34;100.00;93857.16;4927596;28;20041;-57
2024/02/23 08:19:17;;;;;;;2.15;0.98;;;8.70;70.50;;;3.42;99.07;93867.19;4933460;28;20500;-58
2024/02/23 08:21:44;;;;;;;3.20;0.70;;;8.80;70.30;;;3.49;99.77;93864.31;4928257;28;20038;-59
2024/02/23 08:24:10;;;;;;;2.63;0.60;;;8.90;70.20;;;3.48;96.04;93855.63;4930046;28;20074;-58
2024/02/23 08:26:38;;;;;;;2.85;0.70;;;8.90;70.00;;;3.58;98.08;93851.41;4929262;28;20081;-55
2024/02/23 08:29:04;;;;;;;4.60;0.82;;;9.00;69.90;;;3.64;97.10;93853.78;4926596;28;20081;-55
2024/02/23 08:31:31;;;;;;;0.85;0.60;;;9.10;69.80;;;3.74;98.18;93860.91;4927869;28;20496;-59
2024/02/23 08:33:57;;;;;;;4.80;0.90;;;9.20;70.30;;;3.70;95.19;93859.84;4923094;28;20058;-54
2024/02/23 08:36:23;;;;;;;3.40;1.10;;;9.30;69.40;;;3.76;95.10;93850.91;4926469;28;20047;-54
2024/02/23 08:38:48;;;;;;;3.42;0.85;;;9.40;69.20;;;3.85;93.15;93851.91;4933430;28;20534;-57
2024/02/23 08:41:14;;;;;;;4.03;1.00;;;9.50;68.80;;;3.90;92.75;93854.56;4927898;28;20035;-58
2024/02/23 08:43:40;;;;;;;1.23;0.70;;;9.60;68.70;;;3.97;93.48;93849.03;4911816;28;20018;-56
2024/02/23 08:46:06;;;;;;;2.03;0.80;;;9.70;68.50;;;4.09;92.38;93838.22;4914246;28;20026;-57
2024/02/23 08:48:32;;;;;;;1.85;0.98;;;9.80;68.40;;;4.12;91.16;93843.75;4910654;29;20194;-59
2024/02/23 08:50:58;;;;;;;5.30;1.05;;;9.90;68.20;;;4.23;91.88;93846.34;4931289;28;20385;-59
2024/02/23 08:53:23;;;;;;;3.58;0.70;;;10.00;68.00;;;4.18;84.80;93855.06;4922373;28;20023;-55
2024/02/23 08:55:49;;;;;;;6.38;1.15;;;10.00;67.60;;;4.22;87.08;93847.41;4927743;29;20042;-57
2024/02/23 08:58:15;;;;;;;5.70;0.90;;;10.00;67.30;;;4.24;86.66;93848.72;4933994;28;20026;-54
2024/02/23 09:00:41;;;;;;;2.63;0.75;;;10.00;67.10;;;4.24;84.14;93845.31;4914039;29;20054;-54
2024/02/23 09:03:07;;;;;;;5.15;0.85;;;10.10;66.90;;;4.31;84.44;93848.44;4930493;28;20490;-53
2024/02/23 09:05:33;;;;;;;1.90;0.68;;;10.10;66.60;;;4.35;83.94;93847.63;4916050;28;20038;-53
2024/02/23 09:07:58;;;;;;;2.28;0.80;;;10.10;66.50;;;4.40;85.09;93844.22;4923446;28;20482;-56
2024/02/23 09:10:24;;;;;;;3.80;0.70;;;10.20;66.30;;;4.44;87.05;93842.59;4927339;28;20086;-52
2024/02/23 09:12:50;;;;;;;2.92;1.02;;;10.20;66.10;;;4.48;85.19;93843.66;4923743;29;20027;-55
2024/02/23 09:15:16;;;;;;;5.05;1.00;;;10.20;65.90;;;4.52;83.83;93846.56;4926488;29;20161;-56
2024/02/23 09:17:42;;;;;;;5.57;1.10;;;10.30;65.70;;;4.57;85.27;93841.25;4928795;29;20086;-56
2024/02/23 09:20:09;;;;;;;7.13;0.98;;;10.30;65.60;;;4.60;85.13;93840.72;4930586;29;20038;-53
2024/02/23 09:22:36;;;;;;;9.07;2.05;;;10.30;65.50;;;4.57;82.93;93834.13;4924559;28;20015;-57
2024/02/23 09:25:05;;;;;;;5.15;1.92;;;10.40;65.10;;;4.69;83.73;93835.69;4926493;28;20058;-53
2024/02/23 09:27:31;;;;;;;4.53;1.42;;;10.40;65.10;;;4.79;81.92;93828.50;4925704;28;20170;-57
2024/02/23 09:29:58;;;;;;;3.95;1.00;;;10.40;65.00;;;4.85;81.50;93829.28;4929015;28;20042;-56
2024/02/23 09:32:24;;;;;;;3.05;0.77;;;10.50;65.00;;;4.82;76.09;93835.88;4936910;28;20066;-56
2024/02/23 09:34:50;;;;;;;5.75;0.90;;;10.60;64.70;;;4.80;75.73;93839.88;4933586;28;20031;-54
2024/02/23 09:37:16;;;;;;;2.58;0.80;;;10.70;64.30;;;4.81;73.72;93834.31;4934408;28;20072;-57
2024/02/23 09:39:41;;;;;;;3.42;0.80;;;10.80;63.80;;;4.87;75.61;93830.59;4932653;28;20459;-55
2024/02/23 09:42:13;;;;;;;2.78;0.80;;;10.80;63.40;;;4.82;73.10;93821.91;4932750;28;20022;-54
2024/02/23 09:44:45;;;;;;;5.38;0.90;;;10.80;62.90;;;4.92;74.53;93816.59;4935257;28;20081;-52
2024/02/23 09:47:14;;;;;;;2.47;0.60;;;10.90;62.50;;;4.92;72.11;93818.41;4934288;28;20025;-55
2024/02/23 09:49:41;;;;;;;3.58;0.90;;;10.90;61.90;;;4.93;73.35;93818.16;4918845;28;20556;-56
2024/02/23 09:52:10;;;;;;;3.20;1.00;;;10.90;61.70;;;5.03;75.37;93806.75;4933895;28;20491;-53
2024/02/23 09:54:39;;;;;;;4.93;1.00;;;10.90;61.60;;;5.06;72.33;93807.00;4931403;28;20121;-55
2024/02/23 09:57:10;;;;;;;1.58;0.60;;;10.90;61.40;;;5.18;76.45;93813.81;4930574;28;20114;-58
2024/02/23 09:59:36;;;;;;;5.85;1.02;;;11.10;61.50;;;5.04;73.42;93803.84;4926502;28;20398;-55
2024/02/23 10:02:14;;;;;;;4.85;1.17;;;11.10;61.30;;;5.22;74.33;93807.69;4931969;28;20543;-58
2024/02/23 10:04:45;;;;;;;5.05;0.85;;;11.20;60.90;;;5.24;74.83;93797.66;4938455;28;20106;-57
2024/02/23 10:07:16;;;;;;;5.03;1.10;;;11.20;60.90;;;5.22;72.75;93810.34;4934954;28;20030;-58
2024/02/23 10:09:42;;;;;;;6.18;1.08;;;11.20;60.50;;;5.23;74.62;93814.56;4931123;28;20044;-53
2024/02/23 10:12:08;;;;;;;5.60;1.30;;;11.30;60.40;;;5.28;72.48;93806.59;4929841;28;20027;-54
2024/02/23 10:14:34;;;;;;;3.83;1.10;;;11.30;60.20;;;5.27;70.92;93797.13;4931052;28;20619;-54
2024/02/23 10:17:01;;;;;;;4.32;1.33;;;11.30;59.90;;;5.34;72.69;93802.88;4932335;28;20026;-55
2024/02/23 10:19:29;;;;;;;4.35;0.85;;;11.30;59.80;;;5.32;70.24;93804.97;4928882;28;20098;-57
2024/02/23 10:21:56;;;;;;;3.95;1.10;;;11.30;59.70;;;5.28;70.08;93805.81;4932424;28;20030;-54